Terminal Aerodrome Forecast
Issued by NWS

Home | Current Version | Previous Version | Text Only | Print | Product List | Glossary Off
Versions: 1 2 3 4 5 6 7 8 9 10 11 12 13 14 15 16 17 18 19 20 21 22 23

154
FTUS43 KOAX 211901 AAA
TAFCDR
TAF AMD
KCDR 211901Z 2119/2218 11014KT P6SM OVC022
     FM212100 12015KT P6SM OVC035=

USA.gov is the U.S. government's official web portal to all federal, state and local government web resources and services.